createdAt,value
2023-04-08T00:02:08.063Z,11.60
2023-04-08T00:04:35.806Z,12.60
2023-04-08T00:07:03.574Z,13.50
2023-04-08T00:09:32.515Z,13.17
2023-04-08T00:12:01.232Z,12.77
2023-04-08T00:14:29.122Z,12.50
2023-04-08T00:16:56.804Z,13.87
2023-04-08T00:19:25.203Z,13.33
2023-04-08T00:21:52.802Z,13.17
2023-04-08T00:24:20.642Z,13.50
2023-04-08T00:26:49.604Z,13.23
2023-04-08T00:29:17.300Z,12.47
2023-04-08T00:31:44.875Z,12.97
2023-04-08T00:34:12.564Z,13.77
2023-04-08T00:36:40.182Z,14.17
2023-04-08T00:39:08.046Z,12.97
2023-04-08T00:41:36.334Z,11.40
2023-04-08T00:44:05.370Z,13.27
2023-04-08T00:46:37.487Z,11.77
2023-04-08T00:49:05.373Z,11.03
2023-04-08T00:51:33.115Z,9.73
2023-04-08T00:54:01.481Z,10.97
2023-04-08T00:56:29.361Z,11.10
2023-04-08T00:58:57.075Z,10.60
2023-04-08T01:01:33.984Z,10.87
2023-04-08T01:04:09.962Z,10.57
2023-04-08T01:06:46.873Z,11.33
2023-04-08T01:09:15.059Z,9.90
2023-04-08T01:11:45.245Z,10.93
2023-04-08T01:14:18.499Z,9.40
2023-04-08T01:16:48.644Z,9.50
2023-04-08T01:19:25.228Z,10.53
2023-04-08T01:21:54.672Z,9.83
2023-04-08T01:24:29.212Z,10.50
2023-04-08T01:27:00.049Z,9.40
2023-04-08T01:29:28.074Z,9.87
2023-04-08T01:31:57.241Z,9.27
2023-04-08T01:34:27.099Z,8.80
2023-04-08T01:36:58.362Z,9.63
2023-04-08T01:39:27.056Z,9.87
2023-04-08T01:41:57.188Z,9.63
2023-04-08T01:44:27.562Z,11.73
2023-04-08T01:46:57.563Z,9.53
2023-04-08T01:49:27.111Z,9.87
2023-04-08T01:51:56.142Z,12.50
2023-04-08T01:54:23.860Z,10.20
2023-04-08T01:56:53.578Z,10.47
2023-04-08T01:59:24.278Z,10.40
2023-04-08T02:01:54.498Z,10.37
2023-04-08T02:04:22.319Z,9.83
2023-04-08T02:06:51.126Z,11.77
2023-04-08T02:09:18.717Z,10.40
2023-04-08T02:11:46.694Z,11.03
2023-04-08T02:14:14.520Z,10.23
2023-04-08T02:16:47.478Z,12.87
2023-04-08T02:19:21.859Z,10.47
2023-04-08T02:21:53.145Z,9.60
2023-04-08T02:24:23.069Z,10.40
2023-04-08T02:26:52.236Z,10.87
2023-04-08T02:29:20.321Z,10.83
2023-04-08T02:31:49.251Z,10.20
2023-04-08T02:34:19.125Z,11.30
2023-04-08T02:36:47.924Z,11.80
2023-04-08T02:39:16.047Z,11.40
2023-04-08T02:41:43.672Z,10.87
2023-04-08T02:44:11.331Z,11.67
2023-04-08T02:46:39.167Z,11.80
2023-04-08T02:49:06.841Z,11.00
2023-04-08T02:51:36.008Z,11.87
2023-04-08T02:54:03.578Z,11.63
2023-04-08T02:56:31.162Z,12.07
2023-04-08T02:58:58.748Z,11.73
2023-04-08T03:01:26.378Z,11.77
2023-04-08T03:03:54.153Z,12.40
2023-04-08T03:06:21.830Z,12.33
2023-04-08T03:08:51.571Z,12.47
2023-04-08T03:11:19.368Z,13.33
2023-04-08T03:13:47.120Z,14.60
2023-04-08T03:16:14.781Z,13.17
2023-04-08T03:18:42.368Z,13.20
2023-04-08T03:21:10.022Z,15.00
2023-04-08T03:23:37.629Z,14.73
2023-04-08T03:26:06.728Z,13.87
2023-04-08T03:28:34.338Z,14.90
2023-04-08T03:31:01.963Z,14.10
2023-04-08T03:33:29.793Z,16.50
2023-04-08T03:35:57.549Z,17.73
2023-04-08T03:38:25.266Z,16.47
2023-04-08T03:40:52.909Z,16.80
2023-04-08T03:43:22.003Z,17.50
2023-04-08T03:45:49.654Z,17.00
2023-04-08T03:48:17.606Z,17.13
2023-04-08T03:50:45.212Z,16.73
2023-04-08T03:53:12.971Z,17.43
2023-04-08T03:55:40.630Z,18.00
2023-04-08T03:58:08.311Z,16.87
2023-04-08T04:00:37.851Z,17.50
2023-04-08T04:03:05.706Z,17.70
2023-04-08T04:05:33.398Z,17.13
2023-04-08T04:08:01.142Z,17.03
2023-04-08T04:10:28.853Z,22.17
2023-04-08T04:12:56.679Z,19.60
2023-04-08T04:15:24.315Z,17.63
2023-04-08T04:17:53.342Z,19.10
2023-04-08T04:20:21.870Z,19.77
2023-04-08T04:22:49.751Z,20.30
2023-04-08T04:25:17.367Z,18.97
2023-04-08T04:27:45.025Z,20.83
2023-04-08T04:30:15.445Z,20.23
2023-04-08T04:32:43.638Z,21.80
2023-04-08T04:35:12.807Z,20.60
2023-04-08T04:37:40.695Z,20.70
2023-04-08T04:40:09.261Z,19.37
2023-04-08T04:42:36.861Z,20.30
2023-04-08T04:45:05.197Z,21.23
2023-04-08T04:47:33.001Z,21.37
2023-04-08T04:50:00.662Z,20.50
2023-04-08T04:52:30.897Z,25.43
2023-04-08T04:54:58.597Z,27.33
2023-04-08T04:57:26.599Z,22.23
2023-04-08T04:59:54.301Z,24.20
2023-04-08T05:02:22.108Z,23.43
2023-04-08T05:04:49.882Z,23.53
2023-04-08T05:07:17.495Z,22.30
2023-04-08T05:09:46.835Z,22.83
2023-04-08T05:12:14.561Z,22.10
2023-04-08T05:14:42.295Z,21.50
2023-04-08T05:17:09.980Z,23.33
2023-04-08T05:19:37.582Z,23.00
2023-04-08T05:22:05.434Z,22.43
2023-04-08T05:24:33.014Z,24.00
2023-04-08T05:27:02.579Z,21.57
2023-04-08T05:29:30.538Z,22.37
2023-04-08T05:31:58.185Z,20.57
2023-04-08T05:34:25.843Z,21.30
2023-04-08T05:36:53.428Z,22.43
2023-04-08T05:39:21.452Z,22.00
2023-04-08T05:41:49.082Z,23.03
2023-04-08T05:44:18.662Z,24.40
2023-04-08T05:46:46.321Z,22.97
2023-04-08T05:49:14.051Z,23.57
2023-04-08T05:51:41.700Z,25.43
2023-04-08T05:54:09.270Z,25.20
2023-04-08T05:56:36.914Z,23.10
2023-04-08T05:59:04.775Z,23.40
2023-04-08T06:01:33.901Z,25.20
2023-04-08T06:04:01.820Z,22.43
2023-04-08T06:06:29.656Z,24.67
2023-04-08T06:08:57.504Z,24.10
2023-04-08T06:11:25.299Z,20.87
2023-04-08T06:13:52.900Z,20.80
2023-04-08T06:16:21.117Z,21.27
2023-04-08T06:18:50.505Z,22.63
2023-04-08T06:21:18.646Z,20.17
2023-04-08T06:23:46.315Z,21.00
2023-04-08T06:26:14.452Z,20.50
2023-04-08T06:28:42.075Z,20.67
2023-04-08T06:31:09.701Z,19.00
2023-04-08T06:33:37.302Z,18.50
2023-04-08T06:36:08.272Z,19.80
2023-04-08T06:38:36.159Z,18.20
2023-04-08T06:41:04.644Z,19.20
2023-04-08T06:43:32.311Z,18.93
2023-04-08T06:45:59.979Z,18.97
2023-04-08T06:48:30.241Z,19.57
2023-04-08T06:50:58.386Z,19.23
2023-04-08T06:53:29.224Z,18.00
2023-04-08T06:55:56.889Z,17.83
2023-04-08T06:58:24.888Z,17.33
2023-04-08T07:00:52.581Z,18.90
2023-04-08T07:03:20.343Z,16.10
2023-04-08T07:05:48.904Z,15.97
2023-04-08T07:08:16.662Z,17.03
2023-04-08T07:10:45.692Z,18.13
2023-04-08T07:13:13.302Z,18.33
2023-04-08T07:15:41.967Z,16.43
2023-04-08T07:18:09.552Z,18.93
2023-04-08T07:20:38.402Z,17.43
2023-04-08T07:23:06.550Z,17.00
2023-04-08T07:25:35.099Z,17.50
2023-04-08T07:28:04.158Z,16.70
2023-04-08T07:30:32.027Z,18.00
2023-04-08T07:33:00.937Z,17.67
2023-04-08T07:35:29.473Z,16.13
2023-04-08T07:37:57.733Z,18.17
2023-04-08T07:40:25.410Z,16.37
2023-04-08T07:42:53.198Z,16.93
2023-04-08T07:45:22.135Z,18.30
2023-04-08T07:47:49.883Z,17.87
2023-04-08T07:50:17.540Z,17.00
2023-04-08T07:52:45.150Z,17.47
2023-04-08T07:55:13.058Z,17.23
2023-04-08T07:57:40.737Z,16.33
2023-04-08T08:00:09.500Z,17.27
2023-04-08T08:02:38.610Z,17.97
2023-04-08T08:05:07.848Z,20.70
2023-04-08T08:07:35.642Z,23.80
2023-04-08T08:10:03.270Z,18.47
2023-04-08T08:12:31.358Z,17.97
2023-04-08T08:14:59.532Z,20.53
2023-04-08T08:17:30.083Z,22.37
2023-04-08T08:19:59.077Z,18.60
2023-04-08T08:22:26.987Z,19.93
2023-04-08T08:24:57.777Z,20.07
2023-04-08T08:27:25.514Z,16.83
2023-04-08T08:29:53.308Z,18.57
2023-04-08T08:32:21.063Z,16.80
2023-04-08T08:34:48.692Z,19.13
2023-04-08T08:37:17.685Z,16.53
2023-04-08T08:39:45.372Z,19.10
2023-04-08T08:42:21.637Z,19.90
2023-04-08T08:44:49.350Z,18.67
2023-04-08T08:47:17.121Z,19.40
2023-04-08T08:49:45.621Z,17.67
2023-04-08T08:52:18.459Z,19.30
2023-04-08T08:54:47.244Z,18.70
2023-04-08T08:57:19.334Z,15.10
2023-04-08T08:59:47.776Z,15.20
2023-04-08T09:02:27.468Z,14.97
2023-04-08T09:05:00.176Z,17.03
2023-04-08T09:07:30.647Z,14.60
2023-04-08T09:10:00.625Z,15.70
2023-04-08T09:12:29.162Z,14.67
2023-04-08T09:15:05.533Z,14.90
2023-04-08T09:17:34.512Z,15.67
2023-04-08T09:20:09.593Z,16.27
2023-04-08T09:22:56.790Z,15.87
2023-04-08T09:25:25.508Z,16.27
2023-04-08T09:27:54.180Z,16.07
2023-04-08T09:30:24.479Z,16.03
2023-04-08T09:32:53.681Z,15.80
2023-04-08T09:35:22.418Z,15.13
2023-04-08T09:37:52.521Z,17.40
2023-04-08T09:40:20.750Z,15.80
2023-04-08T09:42:51.109Z,14.83
2023-04-08T09:45:19.658Z,14.97
2023-04-08T09:48:11.309Z,15.53
2023-04-08T09:50:44.725Z,17.13
2023-04-08T09:53:16.358Z,15.80
2023-04-08T09:55:45.273Z,15.93
2023-04-08T09:58:17.940Z,17.33
2023-04-08T10:00:51.483Z,15.47
2023-04-08T10:03:30.861Z,16.33
2023-04-08T10:06:02.253Z,16.00
2023-04-08T10:08:33.009Z,13.50
2023-04-08T10:11:01.080Z,16.37
2023-04-08T10:13:29.588Z,15.77
2023-04-08T10:16:25.869Z,17.00
2023-04-08T10:18:56.028Z,16.40
2023-04-08T10:21:34.039Z,16.70
2023-04-08T10:24:06.917Z,15.63
2023-04-08T10:26:36.878Z,14.20
2023-04-08T10:29:44.257Z,15.13
2023-04-08T10:32:29.946Z,13.97
2023-04-08T10:34:57.700Z,13.87
2023-04-08T10:37:25.326Z,12.97
2023-04-08T10:39:56.760Z,13.00
2023-04-08T10:42:29.119Z,13.37
2023-04-08T10:45:01.407Z,13.30
2023-04-08T10:47:29.931Z,13.03
2023-04-08T10:49:57.752Z,13.53
2023-04-08T10:52:27.478Z,13.10
2023-04-08T10:54:56.705Z,13.97
2023-04-08T10:57:27.451Z,12.83
2023-04-08T10:59:55.031Z,12.53
2023-04-08T11:02:22.824Z,14.17
2023-04-08T11:04:51.010Z,12.97
2023-04-08T11:07:21.625Z,13.97
2023-04-08T11:09:49.914Z,14.57
2023-04-08T11:12:19.709Z,14.27
2023-04-08T11:14:49.583Z,14.40
2023-04-08T11:17:17.812Z,14.00
2023-04-08T11:19:45.658Z,15.27
2023-04-08T11:22:14.516Z,13.30
2023-04-08T11:24:42.315Z,14.07
2023-04-08T11:27:10.748Z,13.90
2023-04-08T11:29:40.051Z,14.40
2023-04-08T11:32:08.883Z,14.07
2023-04-08T11:34:40.496Z,14.67
2023-04-08T11:37:08.223Z,14.63
2023-04-08T11:39:36.353Z,14.80
2023-04-08T11:42:04.116Z,14.23
2023-04-08T11:44:33.165Z,15.17
2023-04-08T11:47:03.021Z,14.70
2023-04-08T11:49:45.208Z,15.27
2023-04-08T11:52:13.002Z,15.70
2023-04-08T11:54:43.076Z,16.23
2023-04-08T11:57:11.418Z,15.80
2023-04-08T11:59:39.123Z,15.30
2023-04-08T12:02:08.323Z,14.70
2023-04-08T12:04:35.966Z,15.70
2023-04-08T12:07:04.237Z,14.97
2023-04-08T12:09:31.842Z,15.53
2023-04-08T12:11:59.407Z,15.30
2023-04-08T12:14:28.398Z,13.80
2023-04-08T12:16:56.736Z,15.40
2023-04-08T12:19:25.754Z,14.53
2023-04-08T12:21:53.482Z,15.83
2023-04-08T12:24:21.069Z,13.90
2023-04-08T12:26:48.675Z,15.70
2023-04-08T12:29:16.337Z,13.97
2023-04-08T12:31:43.990Z,15.07
2023-04-08T12:34:11.636Z,15.77
2023-04-08T12:36:41.928Z,15.97
2023-04-08T12:39:09.705Z,15.73
2023-04-08T12:41:37.357Z,15.60
2023-04-08T12:44:05.513Z,14.47
2023-04-08T12:46:33.149Z,14.57
2023-04-08T12:49:04.672Z,15.07
2023-04-08T12:51:33.265Z,16.00
2023-04-08T12:54:03.545Z,15.90
2023-04-08T12:56:31.631Z,16.40
2023-04-08T12:58:59.372Z,15.27
2023-04-08T13:01:27.019Z,14.47
2023-04-08T13:03:55.380Z,14.80
2023-04-08T13:06:23.574Z,16.37
2023-04-08T13:08:51.296Z,15.20
2023-04-08T13:11:21.249Z,15.17
2023-04-08T13:13:48.891Z,15.90
2023-04-08T13:16:16.840Z,14.60
2023-04-08T13:18:44.474Z,14.20
2023-04-08T13:21:12.085Z,15.07
2023-04-08T13:23:39.783Z,13.90
2023-04-08T13:26:07.762Z,15.63
2023-04-08T13:28:49.672Z,14.13
2023-04-08T13:31:24.017Z,15.40
2023-04-08T13:33:51.744Z,14.80
2023-04-08T13:36:19.767Z,14.63
2023-04-08T13:38:47.382Z,16.00
2023-04-08T13:41:15.139Z,14.70
2023-04-08T13:43:44.295Z,14.17
2023-04-08T13:46:12.056Z,14.03
2023-04-08T13:48:39.703Z,14.15
2023-04-08T13:51:07.571Z,15.10
2023-04-08T13:53:35.387Z,15.50
2023-04-08T13:56:03.109Z,14.93
2023-04-08T13:58:31.470Z,14.33
2023-04-08T14:01:00.650Z,13.60
2023-04-08T14:03:28.705Z,15.67
2023-04-08T14:05:56.806Z,14.77
2023-04-08T14:08:26.075Z,14.90
2023-04-08T14:10:53.925Z,16.67
2023-04-08T14:13:21.840Z,15.57
2023-04-08T14:15:49.950Z,15.20
2023-04-08T14:18:18.961Z,14.97
2023-04-08T14:20:46.589Z,16.00
2023-04-08T14:23:14.398Z,15.47
2023-04-08T14:25:42.008Z,14.60
2023-04-08T14:28:09.712Z,16.80
2023-04-08T14:30:37.792Z,14.07
2023-04-08T14:33:06.536Z,14.00
2023-04-08T14:35:36.707Z,14.40
2023-04-08T14:38:04.307Z,15.00
2023-04-08T14:40:31.958Z,14.33
2023-04-08T14:42:59.621Z,14.50
2023-04-08T14:45:27.209Z,17.27
2023-04-08T14:47:54.838Z,15.70
2023-04-08T14:50:22.565Z,14.93
2023-04-08T14:52:51.944Z,15.20
2023-04-08T14:55:22.479Z,14.73
2023-04-08T14:57:50.470Z,16.50
2023-04-08T15:00:18.299Z,14.13
2023-04-08T15:02:46.077Z,14.40
2023-04-08T15:05:13.841Z,14.83
2023-04-08T15:07:41.814Z,14.23
2023-04-08T15:10:11.685Z,15.10
2023-04-08T15:12:39.365Z,14.00
2023-04-08T15:15:08.271Z,13.73
2023-04-08T15:17:35.908Z,13.80
2023-04-08T15:20:03.716Z,13.80
2023-04-08T15:22:32.447Z,13.60
2023-04-08T15:25:00.925Z,14.10
2023-04-08T15:27:29.971Z,13.43
2023-04-08T15:29:57.791Z,14.20
2023-04-08T15:32:25.510Z,14.00
2023-04-08T15:34:53.154Z,14.93
2023-04-08T15:37:22.543Z,13.77
2023-04-08T15:39:50.216Z,14.23
2023-04-08T15:42:17.797Z,14.20
2023-04-08T15:44:46.779Z,13.53
2023-04-08T15:47:15.065Z,14.87
2023-04-08T15:49:43.198Z,14.10
2023-04-08T15:52:11.709Z,14.10
2023-04-08T15:54:39.293Z,14.37
2023-04-08T15:57:07.056Z,13.97
2023-04-08T15:59:34.674Z,12.37
2023-04-08T16:02:03.757Z,14.13
2023-04-08T16:04:31.564Z,16.60
2023-04-08T16:06:59.514Z,14.30
2023-04-08T16:09:27.138Z,13.13
2023-04-08T16:11:54.841Z,12.23
2023-04-08T16:14:22.461Z,14.63
2023-04-08T16:16:51.263Z,13.23
2023-04-08T16:19:22.154Z,12.77
2023-04-08T16:21:50.007Z,13.03
2023-04-08T16:24:20.598Z,12.97
2023-04-08T16:26:48.404Z,11.70
2023-04-08T16:29:16.130Z,11.97
2023-04-08T16:31:43.748Z,10.43
2023-04-08T16:34:11.387Z,11.03
2023-04-08T16:36:40.393Z,12.10
2023-04-08T16:39:08.041Z,11.90
2023-04-08T16:41:36.659Z,14.30
2023-04-08T16:44:04.231Z,15.40
2023-04-08T16:46:31.894Z,18.23
2023-04-08T16:48:59.523Z,16.33
2023-04-08T16:51:27.204Z,16.03
2023-04-08T16:53:58.589Z,12.53
2023-04-08T16:56:27.181Z,12.17
2023-04-08T16:58:54.881Z,14.10
2023-04-08T17:01:22.534Z,13.77
2023-04-08T17:03:50.475Z,13.30
2023-04-08T17:06:18.641Z,13.60
2023-04-08T17:08:46.270Z,13.70
2023-04-08T17:11:16.085Z,15.07
2023-04-08T17:13:45.097Z,13.87
2023-04-08T17:16:13.372Z,11.77
2023-04-08T17:18:41.361Z,13.53
2023-04-08T17:21:09.422Z,11.80
2023-04-08T17:23:37.070Z,13.53
2023-04-08T17:26:07.280Z,14.37
2023-04-08T17:28:36.573Z,14.53
2023-04-08T17:31:04.543Z,14.10
2023-04-08T17:33:33.839Z,14.53
2023-04-08T17:36:01.545Z,13.80
2023-04-08T17:38:29.368Z,13.93
2023-04-08T17:40:57.072Z,13.07
2023-04-08T17:43:24.854Z,13.80
2023-04-08T17:45:54.916Z,13.73
2023-04-08T17:48:22.663Z,15.57
2023-04-08T17:50:50.418Z,18.20
2023-04-08T17:53:18.146Z,20.07
2023-04-08T17:55:45.863Z,18.70
2023-04-08T17:58:13.532Z,18.60
2023-04-08T18:00:41.522Z,23.77
2023-04-08T18:03:10.824Z,17.70
2023-04-08T18:05:38.856Z,17.33
2023-04-08T18:08:06.529Z,18.90
2023-04-08T18:10:34.373Z,20.40
2023-04-08T18:15:35.646Z,19.23
2023-04-08T18:18:03.654Z,20.30
2023-04-08T18:20:36.573Z,18.47
2023-04-08T18:23:04.848Z,20.53
2023-04-08T18:25:34.423Z,21.50
2023-04-08T18:28:02.244Z,19.67
2023-04-08T18:30:30.082Z,19.47
2023-04-08T18:32:58.488Z,23.50
2023-04-08T18:35:26.338Z,23.80
2023-04-08T18:37:56.419Z,26.47
2023-04-08T18:40:24.884Z,24.20
2023-04-08T18:42:52.627Z,26.00
2023-04-08T18:45:20.279Z,24.93
2023-04-08T18:47:47.878Z,24.93
2023-04-08T18:50:15.540Z,25.03
2023-04-08T18:52:43.658Z,27.53
2023-04-08T18:55:12.716Z,28.10
2023-04-08T18:57:40.486Z,29.97
2023-04-08T19:00:09.445Z,27.63
2023-04-08T19:02:37.405Z,30.27
2023-04-08T19:05:05.641Z,30.37
2023-04-08T19:07:34.238Z,30.17
2023-04-08T19:10:01.967Z,28.27
2023-04-08T19:12:31.380Z,35.33
2023-04-08T19:14:59.312Z,25.03
2023-04-08T19:17:27.002Z,29.47
2023-04-08T19:19:54.599Z,27.00
2023-04-08T19:22:22.286Z,26.20
2023-04-08T19:24:50.007Z,25.60
2023-04-08T19:27:17.630Z,26.40
2023-04-08T19:29:46.601Z,29.27
2023-04-08T19:32:14.366Z,25.90
2023-04-08T19:34:42.506Z,29.13
2023-04-08T19:37:10.548Z,27.33
2023-04-08T19:39:38.417Z,27.57
2023-04-08T19:42:06.324Z,24.30
2023-04-08T19:44:34.532Z,24.23
2023-04-08T19:47:05.978Z,27.20
2023-04-08T19:49:33.605Z,24.63
2023-04-08T19:52:01.175Z,29.37
2023-04-08T19:54:29.476Z,25.53
2023-04-08T19:56:58.437Z,26.10
2023-04-08T19:59:26.266Z,30.60
2023-04-08T20:01:54.212Z,32.20
2023-04-08T20:04:23.428Z,33.33
2023-04-08T20:06:51.206Z,29.90
2023-04-08T20:09:19.180Z,34.80
2023-04-08T20:11:46.873Z,41.80
2023-04-08T20:14:15.152Z,42.97
2023-04-08T20:16:42.795Z,42.60
2023-04-08T20:19:10.391Z,57.30
2023-04-08T20:21:39.385Z,72.17
2023-04-08T20:24:07.233Z,80.20
2023-04-08T20:26:35.726Z,80.00
2023-04-08T20:29:03.301Z,67.90
2023-04-08T20:31:32.184Z,65.60
2023-04-08T20:34:00.225Z,46.73
2023-04-08T20:36:29.665Z,56.63
2023-04-08T20:38:58.648Z,44.70
2023-04-08T20:41:27.109Z,39.00
2023-04-08T20:43:55.486Z,43.33
2023-04-08T20:46:24.552Z,41.90
2023-04-08T20:48:52.565Z,40.83
2023-04-08T20:51:20.552Z,37.23
2023-04-08T20:53:48.322Z,41.63
2023-04-08T20:56:17.342Z,42.07
2023-04-08T20:58:44.987Z,53.10
2023-04-08T21:01:12.670Z,42.30
2023-04-08T21:03:40.477Z,43.63
2023-04-08T21:06:09.003Z,42.57
2023-04-08T21:08:36.615Z,42.23
2023-04-08T21:11:04.236Z,43.70
2023-04-08T21:13:33.249Z,47.37
2023-04-08T21:16:00.904Z,51.53
2023-04-08T21:18:28.503Z,49.63
2023-04-08T21:20:56.521Z,54.43
2023-04-08T21:23:24.454Z,49.80
2023-04-08T21:25:52.388Z,47.33
2023-04-08T21:28:19.979Z,45.10
2023-04-08T21:30:49.284Z,41.47
2023-04-08T21:33:16.972Z,44.03
2023-04-08T21:35:44.696Z,54.40
2023-04-08T21:38:12.664Z,50.80
2023-04-08T21:40:41.171Z,58.20
2023-04-08T21:43:08.733Z,51.63
2023-04-08T21:45:36.746Z,55.60
2023-04-08T21:48:07.051Z,43.73
2023-04-08T21:50:34.681Z,48.47
2023-04-08T21:53:02.441Z,47.63
2023-04-08T21:55:30.383Z,43.30
2023-04-08T21:57:58.038Z,53.13
2023-04-08T22:00:26.060Z,45.60
2023-04-08T22:02:53.828Z,46.20
2023-04-08T22:05:23.337Z,46.73
2023-04-08T22:07:51.053Z,58.47
2023-04-08T22:10:19.007Z,48.50
2023-04-08T22:12:46.797Z,56.03
2023-04-08T22:15:14.351Z,50.07
2023-04-08T22:17:41.948Z,46.07
2023-04-08T22:20:10.546Z,46.90
2023-04-08T22:22:39.555Z,55.80
2023-04-08T22:25:08.490Z,54.27
2023-04-08T22:27:36.318Z,55.27
2023-04-08T22:30:03.948Z,55.07
2023-04-08T22:32:31.586Z,58.43
2023-04-08T22:34:59.199Z,52.53
2023-04-08T22:37:27.142Z,56.00
2023-04-08T22:39:57.121Z,56.10
2023-04-08T22:42:25.553Z,56.03
2023-04-08T22:44:53.219Z,57.30
2023-04-08T22:47:21.363Z,61.43
2023-04-08T22:49:49.037Z,66.63
2023-04-08T22:52:16.692Z,65.63
2023-04-08T22:54:44.253Z,67.67
2023-04-08T22:57:13.182Z,65.93
2023-04-08T22:59:40.955Z,62.83
2023-04-08T23:02:08.620Z,65.47
2023-04-08T23:04:37.033Z,64.77
2023-04-08T23:07:04.747Z,77.10
2023-04-08T23:09:32.418Z,55.40
2023-04-08T23:12:01.266Z,64.33
2023-04-08T23:14:30.298Z,55.40
2023-04-08T23:16:57.855Z,55.80
2023-04-08T23:19:25.447Z,53.47
2023-04-08T23:21:53.474Z,55.67
2023-04-08T23:24:21.085Z,59.13
2023-04-08T23:26:49.190Z,55.60
2023-04-08T23:29:16.748Z,72.83
2023-04-08T23:31:45.733Z,55.77
2023-04-08T23:34:13.384Z,52.40
2023-04-08T23:36:41.040Z,49.00
2023-04-08T23:39:08.650Z,53.70
2023-04-08T23:41:36.341Z,54.10
2023-04-08T23:44:03.956Z,59.53
2023-04-08T23:46:31.926Z,49.93
2023-04-08T23:49:00.911Z,50.90
2023-04-08T23:51:28.808Z,47.70
2023-04-08T23:53:56.458Z,45.97
2023-04-08T23:56:24.274Z,42.07
2023-04-08T23:58:52.132Z,50.50
